createdAt,value
2019-03-23T00:02:07.714Z,79.93
2019-03-23T00:04:38.016Z,74.77
2019-03-23T00:07:08.363Z,82.70
2019-03-23T00:09:38.994Z,76.97
2019-03-23T00:12:09.198Z,77.80
2019-03-23T00:14:39.468Z,78.57
2019-03-23T00:17:11.073Z,72.90
2019-03-23T00:19:41.354Z,76.50
2019-03-23T00:22:11.656Z,79.03
2019-03-23T00:24:42.010Z,74.77
2019-03-23T00:27:12.274Z,78.40
2019-03-23T00:29:42.707Z,82.67
2019-03-23T00:32:12.958Z,64.87
2019-03-23T00:34:43.256Z,92.80
2019-03-23T00:37:13.486Z,75.73
2019-03-23T00:39:43.712Z,70.87
2019-03-23T00:42:14.036Z,72.10
2019-03-23T00:44:44.364Z,77.67
2019-03-23T00:47:14.654Z,75.63
2019-03-23T00:49:44.915Z,76.00
2019-03-23T00:52:15.162Z,89.07
2019-03-23T00:54:45.425Z,81.57
2019-03-23T00:57:15.696Z,80.33
2019-03-23T00:59:46.005Z,82.13
2019-03-23T01:02:16.282Z,83.07
2019-03-23T01:04:46.524Z,87.63
2019-03-23T01:07:16.782Z,99.20
2019-03-23T01:09:46.995Z,79.23
2019-03-23T01:12:17.413Z,80.67
2019-03-23T01:14:47.655Z,78.47
2019-03-23T01:17:17.850Z,84.73
2019-03-23T01:19:48.193Z,91.33
2019-03-23T01:22:18.385Z,74.70
2019-03-23T01:24:48.625Z,88.07
2019-03-23T01:27:18.852Z,84.10
2019-03-23T01:29:49.170Z,86.10
2019-03-23T01:32:19.418Z,76.13
2019-03-23T01:34:49.810Z,84.57
2019-03-23T01:37:20.022Z,73.67
2019-03-23T01:39:50.282Z,82.77
2019-03-23T01:42:20.694Z,79.30
2019-03-23T01:44:50.937Z,88.70
2019-03-23T01:47:21.646Z,87.77
2019-03-23T01:49:51.915Z,75.13
2019-03-23T01:52:22.127Z,77.77
2019-03-23T01:54:52.660Z,83.10
2019-03-23T01:57:22.959Z,77.27
2019-03-23T01:59:53.448Z,77.80
2019-03-23T02:02:23.667Z,81.07
2019-03-23T02:04:53.999Z,83.13
2019-03-23T02:07:24.192Z,61.67
2019-03-23T02:09:54.443Z,64.97
2019-03-23T02:12:24.763Z,72.27
2019-03-23T02:14:55.097Z,75.83
2019-03-23T02:17:25.434Z,65.93
2019-03-23T02:19:57.647Z,71.70
2019-03-23T02:22:27.690Z,62.80
2019-03-23T02:25:10.923Z,70.23
2019-03-23T02:27:41.181Z,63.50
2019-03-23T02:30:12.670Z,69.87
2019-03-23T02:32:43.002Z,69.23
2019-03-23T02:35:13.602Z,67.17
2019-03-23T02:37:43.842Z,75.40
2019-03-23T02:40:14.154Z,80.77
2019-03-23T02:42:44.469Z,76.03
2019-03-23T02:45:15.574Z,59.50
2019-03-23T02:47:45.879Z,64.50
2019-03-23T02:50:16.284Z,94.53
2019-03-23T02:52:46.533Z,65.50
2019-03-23T02:55:16.791Z,70.07
2019-03-23T02:57:48.071Z,68.90
2019-03-23T03:00:18.753Z,81.67
2019-03-23T03:02:49.001Z,76.33
2019-03-23T03:05:19.400Z,85.10
2019-03-23T03:07:49.713Z,123.80
2019-03-23T03:10:38.000Z,93.67
2019-03-23T03:13:08.384Z,70.10
2019-03-23T03:15:38.652Z,80.43
2019-03-23T03:18:09.355Z,82.23
2019-03-23T03:20:39.603Z,91.33
2019-03-23T03:23:10.021Z,83.23
2019-03-23T03:25:40.344Z,109.30
2019-03-23T03:28:10.608Z,100.93
2019-03-23T03:30:40.923Z,84.47
2019-03-23T03:33:11.156Z,80.03
2019-03-23T03:35:41.442Z,124.97
2019-03-23T03:38:11.691Z,96.43
2019-03-23T03:40:41.910Z,140.43
2019-03-23T03:43:13.279Z,165.60
2019-03-23T03:45:43.580Z,129.20
2019-03-23T03:48:13.905Z,124.10
2019-03-23T03:50:44.144Z,112.33
2019-03-23T03:53:14.470Z,93.07
2019-03-23T03:55:44.754Z,95.10
2019-03-23T03:58:16.033Z,132.40
2019-03-23T04:00:46.334Z,98.80
2019-03-23T04:03:16.586Z,107.53
2019-03-23T04:05:46.770Z,99.50
2019-03-23T04:08:17.012Z,95.40
2019-03-23T04:10:47.453Z,104.03
2019-03-23T04:13:17.688Z,96.23
2019-03-23T04:15:47.894Z,79.73
2019-03-23T04:18:18.145Z,88.77
2019-03-23T04:20:48.374Z,97.07
2019-03-23T04:23:18.680Z,108.23
2019-03-23T04:25:50.023Z,80.13
2019-03-23T04:28:20.368Z,74.77
2019-03-23T04:30:50.621Z,121.70
2019-03-23T04:33:20.985Z,80.40
2019-03-23T04:35:51.259Z,93.73
2019-03-23T04:38:22.886Z,122.40
2019-03-23T04:40:53.585Z,86.20
2019-03-23T04:43:23.917Z,82.97
2019-03-23T04:45:54.222Z,93.03
2019-03-23T04:48:24.454Z,93.70
2019-03-23T04:50:54.696Z,82.27
2019-03-23T04:53:24.991Z,76.80
2019-03-23T04:55:55.301Z,92.67
2019-03-23T04:58:25.563Z,79.67
2019-03-23T05:00:55.792Z,85.80
2019-03-23T05:03:26.026Z,83.87
2019-03-23T05:05:56.232Z,67.80
2019-03-23T05:08:33.346Z,68.70
2019-03-23T05:10:58.411Z,84.97
2019-03-23T05:13:29.599Z,68.97
2019-03-23T05:15:59.858Z,65.13
2019-03-23T05:18:30.102Z,78.97
2019-03-23T05:21:00.418Z,70.40
2019-03-23T05:23:30.731Z,77.87
2019-03-23T05:26:00.999Z,85.63
2019-03-23T05:28:31.251Z,67.27
2019-03-23T05:31:01.545Z,67.77
2019-03-23T05:33:31.817Z,68.07
2019-03-23T05:36:02.051Z,60.60
2019-03-23T05:38:32.229Z,63.97
2019-03-23T05:41:02.530Z,69.40
2019-03-23T05:43:32.727Z,58.37
2019-03-23T05:46:03.113Z,61.67
2019-03-23T05:48:33.287Z,59.27
2019-03-23T05:51:03.611Z,54.17
2019-03-23T05:53:33.833Z,60.47
2019-03-23T05:56:04.154Z,67.00
2019-03-23T05:58:34.363Z,57.40
2019-03-23T06:01:04.777Z,55.23
2019-03-23T06:03:34.994Z,55.50
2019-03-23T06:06:05.520Z,51.40
2019-03-23T06:08:35.781Z,55.77
2019-03-23T06:11:06.340Z,56.20
2019-03-23T06:13:36.559Z,51.23
2019-03-23T06:16:06.820Z,56.10
2019-03-23T06:18:37.027Z,50.13
2019-03-23T06:21:07.388Z,56.00
2019-03-23T06:23:37.587Z,53.07
2019-03-23T06:26:09.280Z,47.27
2019-03-23T06:28:40.634Z,51.67
2019-03-23T06:31:10.857Z,45.83
2019-03-23T06:33:41.081Z,50.77
2019-03-23T06:36:11.368Z,53.53
2019-03-23T06:38:41.595Z,47.23
2019-03-23T06:41:11.815Z,52.40
2019-03-23T06:43:42.098Z,61.77
2019-03-23T06:46:12.348Z,52.10
2019-03-23T06:48:42.562Z,53.83
2019-03-23T06:51:12.792Z,44.83
2019-03-23T06:53:43.019Z,55.20
2019-03-23T06:56:13.247Z,50.27
2019-03-23T06:58:43.467Z,57.40
2019-03-23T07:01:13.728Z,52.40
2019-03-23T07:03:44.173Z,53.07
2019-03-23T07:06:14.440Z,49.67
2019-03-23T07:08:44.851Z,47.13
2019-03-23T07:11:15.102Z,47.57
2019-03-23T07:13:45.714Z,47.90
2019-03-23T07:16:15.964Z,51.03
2019-03-23T07:18:46.197Z,42.53
2019-03-23T07:21:18.180Z,47.63
2019-03-23T07:23:48.700Z,46.53
2019-03-23T07:26:18.946Z,48.60
2019-03-23T07:28:49.198Z,43.00
2019-03-23T07:31:19.475Z,41.17
2019-03-23T07:33:49.717Z,58.40
2019-03-23T07:36:19.971Z,45.40
2019-03-23T07:38:50.295Z,45.53
2019-03-23T07:41:20.684Z,47.73
2019-03-23T07:43:50.975Z,49.80
2019-03-23T07:46:21.238Z,48.20
2019-03-23T07:48:51.536Z,49.60
2019-03-23T07:51:21.859Z,50.20
2019-03-23T07:53:52.077Z,44.23
2019-03-23T07:56:22.360Z,49.40
2019-03-23T07:58:52.574Z,48.43
2019-03-23T08:01:22.804Z,46.87
2019-03-23T08:03:53.070Z,56.53
2019-03-23T08:06:23.364Z,59.23
2019-03-23T08:08:53.675Z,55.40
2019-03-23T08:11:24.110Z,51.63
2019-03-23T08:13:54.413Z,50.13
2019-03-23T08:16:24.725Z,56.77
2019-03-23T08:18:55.212Z,58.70
2019-03-23T08:21:26.655Z,58.23
2019-03-23T08:23:56.904Z,58.57
2019-03-23T08:26:27.337Z,61.33
2019-03-23T08:28:57.687Z,57.13
2019-03-23T08:31:27.924Z,52.30
2019-03-23T08:33:58.243Z,58.10
2019-03-23T08:36:28.517Z,58.63
2019-03-23T08:38:58.776Z,57.93
2019-03-23T08:41:29.048Z,57.13
2019-03-23T08:43:59.335Z,56.00
2019-03-23T08:46:29.638Z,55.13
2019-03-23T08:48:59.896Z,47.00
2019-03-23T08:51:30.140Z,55.60
2019-03-23T08:54:00.478Z,54.57
2019-03-23T08:56:30.771Z,55.97
2019-03-23T08:59:01.058Z,65.00
2019-03-23T09:01:31.357Z,53.20
2019-03-23T09:04:01.669Z,54.47
2019-03-23T09:06:31.863Z,57.07
2019-03-23T09:09:02.195Z,61.87
2019-03-23T09:11:33.391Z,61.57
2019-03-23T09:14:03.686Z,50.30
2019-03-23T09:16:34.018Z,56.73
2019-03-23T09:19:04.474Z,52.30
2019-03-23T09:21:34.788Z,52.93
2019-03-23T09:24:05.099Z,55.10
2019-03-23T09:26:35.348Z,54.60
2019-03-23T09:29:06.798Z,48.60
2019-03-23T09:31:37.120Z,52.43
2019-03-23T09:34:07.499Z,52.97
2019-03-23T09:36:37.711Z,52.80
2019-03-23T09:39:08.669Z,50.30
2019-03-23T09:41:38.955Z,48.60
2019-03-23T09:44:09.282Z,48.63
2019-03-23T09:46:39.550Z,57.43
2019-03-23T09:49:09.828Z,53.50
2019-03-23T09:51:40.052Z,48.73
2019-03-23T09:54:10.343Z,54.27
2019-03-23T09:56:40.598Z,51.43
2019-03-23T09:59:10.827Z,52.13
2019-03-23T10:01:41.079Z,52.07
2019-03-23T10:04:11.331Z,56.87
2019-03-23T10:06:41.594Z,55.60
2019-03-23T10:09:11.836Z,49.30
2019-03-23T10:11:42.133Z,58.77
2019-03-23T10:14:12.506Z,47.63
2019-03-23T10:16:43.766Z,49.60
2019-03-23T10:19:15.854Z,54.60
2019-03-23T10:21:46.054Z,47.77
2019-03-23T10:24:16.462Z,54.30
2019-03-23T10:26:46.715Z,52.93
2019-03-23T10:29:17.045Z,58.80
2019-03-23T10:31:47.368Z,57.40
2019-03-23T10:34:17.600Z,57.37
2019-03-23T10:36:47.828Z,60.23
2019-03-23T10:39:18.140Z,53.40
2019-03-23T10:41:48.440Z,48.03
2019-03-23T10:44:18.780Z,49.73
2019-03-23T10:46:50.078Z,49.20
2019-03-23T10:49:20.386Z,48.70
2019-03-23T10:51:53.066Z,50.93
2019-03-23T10:54:23.369Z,50.20
2019-03-23T10:56:53.658Z,61.20
2019-03-23T10:59:24.189Z,49.00
2019-03-23T11:01:54.586Z,56.30
2019-03-23T11:04:24.946Z,53.97
2019-03-23T11:06:55.208Z,62.17
2019-03-23T11:09:25.550Z,59.67
2019-03-23T11:11:55.928Z,52.00
2019-03-23T11:14:26.202Z,62.77
2019-03-23T11:16:56.502Z,65.23
2019-03-23T11:19:26.827Z,54.10
2019-03-23T11:21:57.277Z,58.30
2019-03-23T11:24:27.553Z,63.30
2019-03-23T11:26:57.867Z,60.57
2019-03-23T11:29:28.184Z,58.53
2019-03-23T11:31:58.425Z,68.33
2019-03-23T11:34:28.714Z,68.13
2019-03-23T11:36:58.918Z,63.27
2019-03-23T11:39:29.170Z,62.37
2019-03-23T11:41:59.413Z,69.70
2019-03-23T11:44:29.680Z,67.80
2019-03-23T11:47:01.066Z,66.60
2019-03-23T11:49:31.431Z,59.27
2019-03-23T11:52:01.647Z,62.87
2019-03-23T11:54:32.038Z,70.80
2019-03-23T11:57:02.607Z,67.47
2019-03-23T11:59:32.957Z,68.17
2019-03-23T12:02:03.218Z,68.97
2019-03-23T12:04:33.521Z,60.83
2019-03-23T12:07:03.776Z,64.80
2019-03-23T12:09:34.056Z,68.83
2019-03-23T12:12:04.453Z,58.30
2019-03-23T12:14:35.077Z,69.10
2019-03-23T12:17:05.550Z,71.00
2019-03-23T12:19:35.762Z,75.67
2019-03-23T12:22:06.054Z,70.73
2019-03-23T12:24:36.302Z,61.20
2019-03-23T12:27:07.248Z,65.17
2019-03-23T12:29:37.498Z,65.73
2019-03-23T12:32:07.823Z,65.53
2019-03-23T12:34:38.262Z,57.60
2019-03-23T12:37:08.520Z,69.77
2019-03-23T12:39:38.833Z,66.23
2019-03-23T12:42:09.059Z,63.47
2019-03-23T12:44:39.388Z,58.63
2019-03-23T12:47:09.656Z,70.93
2019-03-23T12:49:40.956Z,69.40
2019-03-23T12:52:11.291Z,64.60
2019-03-23T12:54:41.531Z,65.03
2019-03-23T12:57:11.773Z,71.17
2019-03-23T12:59:42.805Z,73.90
2019-03-23T13:02:13.089Z,72.40
2019-03-23T13:04:43.380Z,78.23
2019-03-23T13:07:13.646Z,78.17
2019-03-23T13:09:43.925Z,76.93
2019-03-23T13:12:14.123Z,71.03
2019-03-23T13:14:44.527Z,67.83
2019-03-23T13:17:14.799Z,70.43
2019-03-23T13:19:45.141Z,75.80
2019-03-23T13:22:15.379Z,65.17
2019-03-23T13:24:45.721Z,64.37
2019-03-23T13:27:16.034Z,64.67
2019-03-23T13:29:47.328Z,81.17
2019-03-23T13:32:17.797Z,64.90
2019-03-23T13:34:49.142Z,65.57
2019-03-23T13:37:19.447Z,60.00
2019-03-23T13:39:49.763Z,67.07
2019-03-23T13:42:20.004Z,67.33
2019-03-23T13:44:50.279Z,64.63
2019-03-23T13:47:20.562Z,67.20
2019-03-23T13:49:50.852Z,48.80
2019-03-23T13:52:21.107Z,53.37
2019-03-23T13:54:51.438Z,57.93
2019-03-23T13:57:21.651Z,68.17
2019-03-23T13:59:51.997Z,52.33
2019-03-23T14:02:22.289Z,61.30
2019-03-23T14:04:52.545Z,53.93
2019-03-23T14:07:22.830Z,56.63
2019-03-23T14:09:53.123Z,51.77
2019-03-23T14:12:23.445Z,47.80
2019-03-23T14:14:53.747Z,53.67
2019-03-23T14:17:24.039Z,46.13
2019-03-23T14:19:54.265Z,44.67
2019-03-23T14:22:24.487Z,46.53
2019-03-23T14:24:54.721Z,47.37
2019-03-23T14:27:24.959Z,45.50
2019-03-23T14:29:55.217Z,39.33
2019-03-23T14:32:25.547Z,52.47
2019-03-23T14:34:55.833Z,41.13
2019-03-23T14:37:26.125Z,41.30
2019-03-23T14:39:56.457Z,40.60
2019-03-23T14:42:26.721Z,46.70
2019-03-23T14:44:56.961Z,54.70
2019-03-23T14:47:27.226Z,47.90
2019-03-23T14:49:57.683Z,40.93
2019-03-23T14:52:27.951Z,39.50
2019-03-23T14:54:58.193Z,47.67
2019-03-23T14:57:28.453Z,48.20
2019-03-23T14:59:58.711Z,49.60
2019-03-23T15:02:29.938Z,50.23
2019-03-23T15:05:00.303Z,48.13
2019-03-23T15:07:30.685Z,48.70
2019-03-23T15:10:00.991Z,44.13
2019-03-23T15:12:31.211Z,40.47
2019-03-23T15:15:01.517Z,42.10
2019-03-23T15:17:31.935Z,42.50
2019-03-23T15:20:02.270Z,43.03
2019-03-23T15:22:32.583Z,50.43
2019-03-23T15:25:02.828Z,46.80
2019-03-23T15:27:33.278Z,49.27
2019-03-23T15:30:03.831Z,48.87
2019-03-23T15:32:34.343Z,52.60
2019-03-23T15:35:05.041Z,42.10
2019-03-23T15:37:35.361Z,42.57
2019-03-23T15:40:05.948Z,45.07
2019-03-23T15:42:36.276Z,58.23
2019-03-23T15:45:07.913Z,49.43
2019-03-23T15:47:38.275Z,44.37
2019-03-23T15:50:09.513Z,35.07
2019-03-23T15:52:39.735Z,40.07
2019-03-23T15:55:10.789Z,40.13
2019-03-23T15:57:41.179Z,35.80
2019-03-23T16:00:13.160Z,32.70
2019-03-23T16:02:43.443Z,33.10
2019-03-23T16:05:13.985Z,38.77
2019-03-23T16:07:44.307Z,32.93
2019-03-23T16:10:15.767Z,34.77
2019-03-23T16:12:46.307Z,37.67
2019-03-23T16:15:16.783Z,37.70
2019-03-23T16:17:47.132Z,41.20
2019-03-23T16:20:18.435Z,38.77
2019-03-23T16:22:48.741Z,30.80
2019-03-23T16:25:19.143Z,40.67
2019-03-23T16:27:49.539Z,35.17
2019-03-23T16:30:31.591Z,37.43
2019-03-23T16:33:01.823Z,41.30
2019-03-23T16:35:32.206Z,32.17
2019-03-23T16:38:02.609Z,36.37
2019-03-23T16:40:32.965Z,29.73
2019-03-23T16:43:03.207Z,33.30
2019-03-23T16:45:34.641Z,31.70
2019-03-23T16:48:05.016Z,35.40
2019-03-23T16:50:35.325Z,26.13
2019-03-23T16:53:05.831Z,28.77
2019-03-23T16:55:36.154Z,24.80
2019-03-23T16:58:15.544Z,23.47
2019-03-23T17:00:39.095Z,25.23
2019-03-23T17:03:09.315Z,28.00
2019-03-23T17:05:39.645Z,23.83
2019-03-23T17:08:09.911Z,18.70
2019-03-23T17:10:40.259Z,22.33
2019-03-23T17:13:10.656Z,25.37
2019-03-23T17:15:41.002Z,25.43
2019-03-23T17:18:11.370Z,18.20
2019-03-23T17:20:43.535Z,24.20
2019-03-23T17:23:13.543Z,21.03
2019-03-23T17:25:44.027Z,19.50
2019-03-23T17:28:14.267Z,21.43
2019-03-23T17:30:44.686Z,19.07
2019-03-23T17:33:14.949Z,16.60
2019-03-23T17:35:45.476Z,24.77
2019-03-23T17:38:15.802Z,22.53
2019-03-23T17:40:46.109Z,17.30
2019-03-23T17:43:16.452Z,20.70
2019-03-23T17:45:47.797Z,24.60
2019-03-23T17:48:19.408Z,19.90
2019-03-23T17:50:49.746Z,19.80
2019-03-23T17:53:20.073Z,23.33
2019-03-23T17:55:50.685Z,24.90
2019-03-23T17:58:22.130Z,24.43
2019-03-23T18:00:52.461Z,25.03
2019-03-23T18:03:22.803Z,30.10
2019-03-23T18:05:53.151Z,20.37
2019-03-23T18:08:25.440Z,19.33
2019-03-23T18:10:55.694Z,28.23
2019-03-23T18:13:26.073Z,16.70
2019-03-23T18:15:56.328Z,18.80
2019-03-23T18:18:26.536Z,17.07
2019-03-23T18:20:56.854Z,19.90
2019-03-23T18:23:27.095Z,16.57
2019-03-23T18:25:57.541Z,18.87
2019-03-23T18:28:27.806Z,16.00
2019-03-23T18:30:58.055Z,18.97
2019-03-23T18:33:28.405Z,20.20
2019-03-23T18:35:58.633Z,20.53
2019-03-23T18:38:28.921Z,20.33
2019-03-23T18:40:59.210Z,25.87
2019-03-23T18:43:29.580Z,16.77
2019-03-23T18:45:59.951Z,20.80
2019-03-23T18:48:30.265Z,23.77
2019-03-23T18:51:00.645Z,22.87
2019-03-23T18:53:30.994Z,22.67
2019-03-23T18:56:01.340Z,25.50
2019-03-23T18:58:31.723Z,29.50
2019-03-23T19:01:02.167Z,27.57
2019-03-23T19:03:32.498Z,29.77
2019-03-23T19:06:02.940Z,36.97
2019-03-23T19:08:33.266Z,31.07
2019-03-23T19:11:03.554Z,35.07
2019-03-23T19:13:37.714Z,37.47
2019-03-23T19:16:06.169Z,28.10
2019-03-23T19:18:36.490Z,31.60
2019-03-23T19:21:06.889Z,42.23
2019-03-23T19:23:37.279Z,37.37
2019-03-23T19:26:07.597Z,40.17
2019-03-23T19:28:37.853Z,46.30
2019-03-23T19:31:08.096Z,31.97
2019-03-23T19:33:38.435Z,39.43
2019-03-23T19:36:08.740Z,35.00
2019-03-23T19:38:39.102Z,45.07
2019-03-23T19:41:09.346Z,39.87
2019-03-23T19:43:48.268Z,39.83
2019-03-23T19:46:11.568Z,43.80
2019-03-23T19:48:41.881Z,43.80
2019-03-23T19:51:12.162Z,39.80
2019-03-23T19:53:42.415Z,40.50
2019-03-23T19:56:12.646Z,43.90
2019-03-23T19:58:42.987Z,48.20
2019-03-23T20:01:13.285Z,43.43
2019-03-23T20:03:43.639Z,45.70
2019-03-23T20:06:13.887Z,44.57
2019-03-23T20:08:44.196Z,39.10
2019-03-23T20:11:14.590Z,46.40
2019-03-23T20:13:45.106Z,50.90
2019-03-23T20:16:15.409Z,45.27
2019-03-23T20:18:45.812Z,47.60
2019-03-23T20:21:16.165Z,51.87
2019-03-23T20:23:46.493Z,43.73
2019-03-23T20:26:16.768Z,52.33
2019-03-23T20:28:47.162Z,43.73
2019-03-23T20:31:17.451Z,50.30
2019-03-23T20:33:47.748Z,48.70
2019-03-23T20:36:18.222Z,47.57
2019-03-23T20:38:48.531Z,56.67
2019-03-23T20:41:18.916Z,36.37
2019-03-23T20:43:53.115Z,37.10
2019-03-23T20:46:24.312Z,32.10
2019-03-23T20:48:55.130Z,40.40
2019-03-23T20:51:25.431Z,33.03
2019-03-23T20:53:55.830Z,33.47
2019-03-23T20:56:26.070Z,36.23
2019-03-23T20:58:56.304Z,37.93
2019-03-23T21:01:26.636Z,35.53
2019-03-23T21:03:56.938Z,39.70
2019-03-23T21:06:27.579Z,39.60
2019-03-23T21:08:58.189Z,37.17
2019-03-23T21:11:28.538Z,41.40
2019-03-23T21:13:58.866Z,42.50
2019-03-23T21:16:29.185Z,43.83
2019-03-23T21:18:59.840Z,44.80
2019-03-23T21:21:30.192Z,48.60
2019-03-23T21:24:00.482Z,37.40
2019-03-23T21:26:30.905Z,38.80
2019-03-23T21:29:01.232Z,47.77
2019-03-23T21:31:31.552Z,41.90
2019-03-23T21:34:02.756Z,37.83
2019-03-23T21:36:33.006Z,44.60
2019-03-23T21:39:04.176Z,39.67
2019-03-23T21:41:35.594Z,35.27
2019-03-23T21:44:05.815Z,40.77
2019-03-23T21:46:36.075Z,32.93
2019-03-23T21:49:06.302Z,38.10
2019-03-23T21:51:36.526Z,38.30
2019-03-23T21:54:07.744Z,36.37
2019-03-23T21:56:37.952Z,52.07
2019-03-23T21:59:08.164Z,41.43
2019-03-23T22:01:38.424Z,41.90
2019-03-23T22:04:08.643Z,39.10
2019-03-23T22:06:39.965Z,38.63
2019-03-23T22:09:10.217Z,36.43
2019-03-23T22:11:40.680Z,46.10
2019-03-23T22:14:10.984Z,39.50
2019-03-23T22:16:41.299Z,55.67
2019-03-23T22:19:11.603Z,48.20
2019-03-23T22:21:41.940Z,54.00
2019-03-23T22:24:12.234Z,42.57
2019-03-23T22:26:42.606Z,52.43
2019-03-23T22:29:12.964Z,38.77
2019-03-23T22:31:43.278Z,50.63
2019-03-23T22:34:13.604Z,45.13
2019-03-23T22:36:43.852Z,38.80
2019-03-23T22:39:14.123Z,41.57
2019-03-23T22:41:44.330Z,48.77
2019-03-23T22:44:14.995Z,45.87
2019-03-23T22:46:45.198Z,55.20
2019-03-23T22:49:15.440Z,46.40
2019-03-23T22:51:45.874Z,47.27
2019-03-23T22:54:16.141Z,47.20
2019-03-23T22:56:46.458Z,51.13
2019-03-23T22:59:17.868Z,51.50
2019-03-23T23:01:48.199Z,46.77
2019-03-23T23:04:18.527Z,63.73
2019-03-23T23:06:51.338Z,49.60
2019-03-23T23:09:21.653Z,49.73
2019-03-23T23:11:51.980Z,53.13
2019-03-23T23:14:22.229Z,46.73
2019-03-23T23:16:52.557Z,45.73
2019-03-23T23:19:25.142Z,49.47
2019-03-23T23:21:58.533Z,64.00
2019-03-23T23:24:30.019Z,50.43
2019-03-23T23:27:00.313Z,46.70
2019-03-23T23:29:30.581Z,44.07
2019-03-23T23:32:00.863Z,47.90
2019-03-23T23:34:31.187Z,43.60
2019-03-23T23:37:01.622Z,47.70
2019-03-23T23:39:31.955Z,54.00
2019-03-23T23:42:02.234Z,49.83
2019-03-23T23:44:32.491Z,47.50
2019-03-23T23:47:02.782Z,49.90
2019-03-23T23:49:33.020Z,61.73
2019-03-23T23:52:03.314Z,57.23
2019-03-23T23:54:33.545Z,44.00
2019-03-23T23:57:03.831Z,51.57
2019-03-23T23:59:34.069Z,46.90
